Time;durP1;ratioP1;P1;durP2;ratioP2;P2;SDS_P1;SDS_P2;PMS_P1;PMS_P2;Temp;Humidity;BMP_temperature;BMP_pressure;BME280_temperature;BME280_humidity;BME280_pressure;Samples;Min_cycle;Max_cycle;Signal;HPM_P1;HPM_P2
2022/06/24 00:00:08;;;;;;;;;;;;;;;-143.90;100.00;54890.81;3044623;19;20439;-62
2022/06/24 00:01:15;;;;;;;;;;;;;;;-143.90;100.00;54924.59;3040978;19;20011;-62
2022/06/24 00:02:15;;;;;;;;;;;;;;;-143.90;100.00;54916.63;3045013;19;19942;-63
2022/06/24 00:03:17;;;;;;;;;;;;;;;-143.90;100.00;54902.75;3041638;19;19923;-64
2022/06/24 00:04:22;;;;;;;;;;;;;;;-143.90;100.00;54898.78;3040534;19;19925;-63
2022/06/24 00:05:22;;;;;;;;;;;;;;;-143.90;100.00;54920.59;3045883;19;19926;-63
2022/06/24 00:06:23;;;;;;;;;;;;;;;-143.90;100.00;54894.78;3039315;19;19950;-63
2022/06/24 00:07:24;;;;;;;;;;;;;;;-143.90;100.00;54916.63;3041703;19;20460;-62
2022/06/24 00:08:25;;;;;;;;;;;;;;;-143.90;100.00;54936.50;3043822;19;19919;-62
2022/06/24 00:09:27;;;;;;;;;;;;;;;-143.90;100.00;54938.47;3040901;19;19932;-62
2022/06/24 00:10:32;;;;;;;;;;;;;;;-143.90;100.00;54898.78;3043483;19;19988;-62
2022/06/24 00:11:34;;;;;;;;;;;;;;;-143.90;100.00;54914.66;3044248;19;19970;-63
2022/06/24 00:12:35;;;;;;;;;;;;;;;-143.90;100.00;54932.53;3042898;19;19929;-64
2022/06/24 00:13:39;;;;;;;;;;;;;;;-143.90;100.00;54922.59;3047408;19;19918;-61
2022/06/24 00:14:41;;;;;;;;;;;;;;;-143.90;100.00;54948.41;3044084;19;20434;-62
2022/06/24 00:15:42;;;;;;;;;;;;;;;-143.90;100.00;54928.56;3044416;19;19946;-63
2022/06/24 00:16:55;;;;;;;;;;;;;;;-143.90;100.00;54892.81;3045091;19;19927;-61
2022/06/24 00:17:56;;;;;;;;;;;;;;;-143.90;100.00;54914.66;3044825;19;19943;-63
2022/06/24 00:19:10;;;;;;;;;;;;;;;-143.90;100.00;54894.78;3042912;19;19922;-62
2022/06/24 00:20:15;;;;;;;;;;;;;;;-143.90;100.00;54906.72;3045868;19;20002;-62
2022/06/24 00:21:16;;;;;;;;;;;;;;;-143.90;100.00;54906.72;3043310;19;19938;-62
2022/06/24 00:22:17;;;;;;;;;;;;;;;-143.90;100.00;54906.72;3045577;19;21053;-63
2022/06/24 00:23:18;;;;;;;;;;;;;;;-143.90;100.00;54940.47;3045489;19;19915;-62
2022/06/24 00:24:22;;;;;;;;;;;;;;;-143.90;100.00;54914.66;3042547;19;19915;-63
2022/06/24 00:25:23;;;;;;;;;;;;;;;-143.90;100.00;54898.78;3043728;19;19926;-60
2022/06/24 00:26:36;;;;;;;;;;;;;;;-143.90;100.00;54904.72;3044589;19;20045;-62
2022/06/24 00:27:38;;;;;;;;;;;;;;;-143.90;100.00;54928.56;3045342;19;19931;-64
2022/06/24 00:28:39;;;;;;;;;;;;;;;-143.90;100.00;54869.00;3043415;19;19930;-63
2022/06/24 00:29:39;;;;;;;;;;;;;;;-143.90;100.00;54920.59;3044223;19;19922;-63
2022/06/24 00:30:41;;;;;;;;;;;;;;;-143.90;100.00;54916.63;3043810;19;19914;-63
2022/06/24 00:31:58;;;;;;;;;;;;;;;-143.90;100.00;54948.41;3042105;19;19948;-63
2022/06/24 00:33:09;;;;;;;;;;;;;;;-143.90;100.00;54914.66;3042928;19;20395;-64
2022/06/24 00:34:23;;;;;;;;;;;;;;;-143.90;100.00;54916.63;3046319;19;20744;-62
2022/06/24 00:35:24;;;;;;;;;;;;;;;-143.90;100.00;54912.66;3045375;19;19926;-62
2022/06/24 00:36:25;;;;;;;;;;;;;;;-143.90;100.00;54900.75;3041493;19;19953;-61
2022/06/24 00:37:30;;;;;;;;;;;;;;;-143.90;100.00;54932.53;3045930;19;19918;-62
2022/06/24 00:38:33;;;;;;;;;;;;;;;-143.90;100.00;54884.88;3042477;19;20451;-61
2022/06/24 00:39:34;;;;;;;;;;;;;;;-143.90;100.00;54906.72;3044429;19;20577;-63
2022/06/24 00:40:34;;;;;;;;;;;;;;;-143.90;100.00;54894.78;3046371;19;20512;-61
2022/06/24 00:41:35;;;;;;;;;;;;;;;-143.90;100.00;54932.53;3041711;19;19925;-61
2022/06/24 00:42:36;;;;;;;;;;;;;;;-143.90;100.00;54904.72;3046107;19;19954;-60
2022/06/24 00:43:41;;;;;;;;;;;;;;;-143.90;100.00;54936.50;3043596;19;19961;-62
2022/06/24 00:44:44;;;;;;;;;;;;;;;-143.90;100.00;54920.59;3044405;19;19926;-62
2022/06/24 00:45:45;;;;;;;;;;;;;;;-143.90;100.00;54900.75;3044548;19;19975;-62
2022/06/24 00:46:46;;;;;;;;;;;;;;;-143.90;100.00;54924.59;3040695;19;20026;-61
2022/06/24 00:47:47;;;;;;;;;;;;;;;-143.90;100.00;54924.59;3046203;19;19915;-62
2022/06/24 00:48:49;;;;;;;;;;;;;;;-143.90;100.00;54938.47;3046002;19;20335;-62
2022/06/24 00:49:50;;;;;;;;;;;;;;;-143.90;100.00;54928.56;3038487;19;19982;-61
2022/06/24 00:50:51;;;;;;;;;;;;;;;-143.90;100.00;54904.72;3045283;19;20269;-61
2022/06/24 00:51:52;;;;;;;;;;;;;;;-143.90;100.00;54924.59;3044321;19;19923;-61
2022/06/24 00:52:57;;;;;;;;;;;;;;;-143.90;100.00;54924.59;3046286;19;20338;-61
2022/06/24 00:53:58;;;;;;;;;;;;;;;-143.90;100.00;54910.69;3045721;19;20284;-61
2022/06/24 00:54:58;;;;;;;;;;;;;;;-143.90;100.00;54940.47;3046076;19;19935;-61
2022/06/24 00:55:59;;;;;;;;;;;;;;;-143.90;100.00;54928.56;3046954;19;20542;-63
2022/06/24 00:57:00;;;;;;;;;;;;;;;-143.90;100.00;54908.69;3044767;19;19915;-62
2022/06/24 00:58:01;;;;;;;;;;;;;;;-143.90;100.00;54936.50;3043129;19;19922;-61
2022/06/24 00:59:03;;;;;;;;;;;;;;;-143.90;100.00;54946.41;3047183;19;19922;-63
2022/06/24 01:00:04;;;;;;;;;;;;;;;-143.90;100.00;54940.47;3045549;19;19930;-63
2022/06/24 01:01:05;;;;;;;;;;;;;;;-143.90;100.00;54916.63;3044923;19;19939;-64
2022/06/24 01:02:06;;;;;;;;;;;;;;;-143.90;100.00;54928.56;3042978;19;19918;-62
2022/06/24 01:03:11;;;;;;;;;;;;;;;-143.90;100.00;54928.56;3043323;19;19929;-62
2022/06/24 01:04:12;;;;;;;;;;;;;;;-143.90;100.00;54924.59;3047636;19;19915;-63
2022/06/24 01:05:13;;;;;;;;;;;;;;;-143.90;100.00;54956.34;3042629;19;20872;-62
2022/06/24 01:06:13;;;;;;;;;;;;;;;-143.90;100.00;54900.75;3046078;19;19923;-60
2022/06/24 01:07:14;;;;;;;;;;;;;;;-143.90;100.00;54924.59;3043859;19;19926;-61
2022/06/24 01:08:15;;;;;;;;;;;;;;;-143.90;100.00;54936.50;3043243;19;20505;-63
2022/06/24 01:09:19;;;;;;;;;;;;;;;-143.90;100.00;54928.56;3045250;19;19915;-63
2022/06/24 01:10:20;;;;;;;;;;;;;;;-143.90;100.00;54938.47;3043893;19;20351;-62
2022/06/24 01:11:24;;;;;;;;;;;;;;;-143.90;100.00;54936.50;3043966;19;20516;-62
2022/06/24 01:12:25;;;;;;;;;;;;;;;-143.90;100.00;54908.69;3050317;19;19922;-61
2022/06/24 01:13:26;;;;;;;;;;;;;;;-143.90;100.00;54922.59;3045258;19;19927;-61
2022/06/24 01:14:27;;;;;;;;;;;;;;;-143.90;100.00;54928.56;3045155;19;19923;-61
2022/06/24 01:15:28;;;;;;;;;;;;;;;-143.90;100.00;54940.47;3047388;19;19950;-63
2022/06/24 01:16:28;;;;;;;;;;;;;;;-143.90;100.00;54926.56;3044899;19;19931;-62
2022/06/24 01:17:29;;;;;;;;;;;;;;;-143.90;100.00;54940.47;3048458;19;19918;-62
2022/06/24 01:18:30;;;;;;;;;;;;;;;-143.90;100.00;54954.38;3049455;19;20255;-62
2022/06/24 01:19:31;;;;;;;;;;;;;;;-143.90;100.00;54930.53;3044893;19;19921;-62
2022/06/24 01:20:32;;;;;;;;;;;;;;;-143.90;100.00;54934.50;3048261;19;19923;-62
2022/06/24 01:21:36;;;;;;;;;;;;;;;-143.90;100.00;54942.44;3045707;19;19930;-62
2022/06/24 01:22:37;;;;;;;;;;;;;;;-143.90;100.00;54918.63;3047509;19;20403;-61
2022/06/24 01:23:38;;;;;;;;;;;;;;;-143.90;100.00;54926.56;3046960;19;19966;-62
2022/06/24 01:24:39;;;;;;;;;;;;;;;-143.90;100.00;54920.59;3047968;19;19926;-62
2022/06/24 01:25:40;;;;;;;;;;;;;;;-143.90;100.00;54924.59;3046098;19;19942;-62
2022/06/24 01:26:41;;;;;;;;;;;;;;;-143.90;100.00;54930.53;3049239;19;19935;-62
2022/06/24 01:27:42;;;;;;;;;;;;;;;-143.90;100.00;54920.59;3047110;19;19926;-61
2022/06/24 01:28:43;;;;;;;;;;;;;;;-143.90;100.00;54958.34;3050035;19;19925;-62
2022/06/24 01:29:43;;;;;;;;;;;;;;;-143.90;100.00;54926.56;3044447;19;19930;-60
2022/06/24 01:30:44;;;;;;;;;;;;;;;-143.90;100.00;54890.81;3047954;19;20935;-62
2022/06/24 01:31:48;;;;;;;;;;;;;;;-143.90;100.00;54928.56;3049271;19;19962;-62
2022/06/24 01:32:49;;;;;;;;;;;;;;;-143.90;100.00;54940.47;3046506;19;19919;-62
2022/06/24 01:33:50;;;;;;;;;;;;;;;-143.90;100.00;54956.34;3044854;19;19914;-62
2022/06/24 01:34:51;;;;;;;;;;;;;;;-143.90;100.00;54924.59;3049493;19;19914;-61
2022/06/24 01:35:51;;;;;;;;;;;;;;;-143.90;100.00;54920.59;3046343;19;19930;-61
2022/06/24 01:36:52;;;;;;;;;;;;;;;-143.90;100.00;54936.50;3046397;19;19918;-61
2022/06/24 01:37:53;;;;;;;;;;;;;;;-143.90;100.00;54924.59;3047327;19;19927;-62
2022/06/24 01:38:54;;;;;;;;;;;;;;;-143.90;100.00;54944.44;3045810;19;19927;-62
2022/06/24 01:39:55;;;;;;;;;;;;;;;-143.90;100.00;54916.63;3046866;19;19923;-61
2022/06/24 01:40:56;;;;;;;;;;;;;;;-143.90;100.00;54948.41;3046068;19;19919;-62
2022/06/24 01:41:56;;;;;;;;;;;;;;;-143.90;100.00;54928.56;3047164;19;19926;-62
2022/06/24 01:42:59;;;;;;;;;;;;;;;-143.90;100.00;54920.59;3045696;19;20332;-62
2022/06/24 01:44:01;;;;;;;;;;;;;;;-143.90;100.00;54940.47;3046667;19;19939;-62
2022/06/24 01:45:02;;;;;;;;;;;;;;;-143.90;100.00;54920.59;3046183;19;19923;-61
2022/06/24 01:46:03;;;;;;;;;;;;;;;-143.90;100.00;54944.44;3047691;19;19923;-62
2022/06/24 01:47:03;;;;;;;;;;;;;;;-143.90;100.00;54920.59;3044999;19;19923;-61
2022/06/24 01:48:04;;;;;;;;;;;;;;;-143.90;100.00;54930.53;3048062;19;19923;-62
2022/06/24 01:49:05;;;;;;;;;;;;;;;-143.90;100.00;54954.38;3043999;19;19923;-61
2022/06/24 01:50:06;;;;;;;;;;;;;;;-143.90;100.00;54936.50;3045152;19;19914;-62
2022/06/24 01:51:07;;;;;;;;;;;;;;;-143.90;100.00;54918.63;3046588;19;19915;-63
2022/06/24 01:52:08;;;;;;;;;;;;;;;-143.90;100.00;54970.25;3042689;19;19922;-62
2022/06/24 01:53:09;;;;;;;;;;;;;;;-143.90;100.00;54928.56;3041397;19;19941;-63
2022/06/24 01:54:10;;;;;;;;;;;;;;;-143.90;100.00;54940.47;3048097;19;19937;-63
2022/06/24 01:55:11;;;;;;;;;;;;;;;-143.90;100.00;54916.63;3046337;19;19934;-64
2022/06/24 01:56:11;;;;;;;;;;;;;;;-143.90;100.00;54948.41;3044998;19;21327;-62
2022/06/24 01:57:12;;;;;;;;;;;;;;;-143.90;100.00;54968.25;3047447;19;19918;-62
2022/06/24 01:58:13;;;;;;;;;;;;;;;-143.90;100.00;54916.63;3042840;19;19922;-63
2022/06/24 01:59:14;;;;;;;;;;;;;;;-143.90;100.00;54920.59;3046367;19;20375;-61
2022/06/24 02:00:15;;;;;;;;;;;;;;;-143.90;100.00;54956.34;3046153;19;20674;-63
2022/06/24 02:01:16;;;;;;;;;;;;;;;-143.90;100.00;54952.38;3047011;19;19926;-63
2022/06/24 02:02:17;;;;;;;;;;;;;;;-143.90;100.00;54944.44;3044231;19;19918;-62
2022/06/24 02:03:18;;;;;;;;;;;;;;;-143.90;100.00;54908.69;3046709;19;20841;-60
2022/06/24 02:04:19;;;;;;;;;;;;;;;-143.90;100.00;54920.59;3046945;19;19980;-62
2022/06/24 02:05:19;;;;;;;;;;;;;;;-143.90;100.00;54940.47;3048663;19;19930;-61
2022/06/24 02:06:20;;;;;;;;;;;;;;;-143.90;100.00;54924.59;3047311;19;20263;-62
2022/06/24 02:07:27;;;;;;;;;;;;;;;-143.90;100.00;54964.28;3046380;19;19965;-62
2022/06/24 02:08:28;;;;;;;;;;;;;;;-143.90;100.00;54962.31;3047224;19;19919;-62
2022/06/24 02:09:28;;;;;;;;;;;;;;;-143.90;100.00;54908.69;3043488;19;19915;-63
2022/06/24 02:13:27;;;;;;;;;;;;;;;-143.90;100.00;54940.47;3044978;19;20267;-62
2022/06/24 02:14:27;;;;;;;;;;;;;;;-143.90;100.00;54948.41;3047697;19;19941;-62
2022/06/24 02:15:28;;;;;;;;;;;;;;;-143.90;100.00;54960.31;3047927;19;19919;-63
2022/06/24 02:16:29;;;;;;;;;;;;;;;-143.90;100.00;54922.59;3044124;19;19950;-62
2022/06/24 02:17:30;;;;;;;;;;;;;;;-143.90;100.00;54932.53;3039577;19;19922;-63
2022/06/24 02:18:32;;;;;;;;;;;;;;;-143.90;100.00;54916.63;3048318;19;19995;-62
2022/06/24 02:19:33;;;;;;;;;;;;;;;-143.90;100.00;54952.38;3047284;19;19918;-63
2022/06/24 02:20:33;;;;;;;;;;;;;;;-143.90;100.00;54944.44;3049807;19;19919;-62
2022/06/24 02:21:34;;;;;;;;;;;;;;;-143.90;100.00;54990.09;3045890;19;19996;-61
2022/06/24 02:22:35;;;;;;;;;;;;;;;-143.90;100.00;54958.34;3045694;19;19933;-63
2022/06/24 02:23:36;;;;;;;;;;;;;;;-143.90;100.00;54920.59;3046389;19;20340;-60
2022/06/24 02:24:37;;;;;;;;;;;;;;;-143.90;100.00;54952.38;3047297;19;19918;-63
2022/06/24 02:25:38;;;;;;;;;;;;;;;-143.90;100.00;54952.38;3048491;19;19943;-62
2022/06/24 02:26:40;;;;;;;;;;;;;;;-143.90;100.00;54962.31;3049416;19;19942;-62
2022/06/24 02:27:40;;;;;;;;;;;;;;;-143.90;100.00;54972.22;3042874;19;19919;-64
2022/06/24 02:28:41;;;;;;;;;;;;;;;-143.90;100.00;54960.31;3048058;19;19949;-62
2022/06/24 02:29:42;;;;;;;;;;;;;;;-143.90;100.00;54948.41;3046241;19;19915;-61
2022/06/24 02:30:43;;;;;;;;;;;;;;;-143.90;100.00;54912.66;3047848;19;19982;-63
2022/06/24 02:31:44;;;;;;;;;;;;;;;-143.90;100.00;54966.28;3047954;19;19956;-61
2022/06/24 02:32:48;;;;;;;;;;;;;;;-143.90;100.00;54940.47;3045412;19;19927;-60
2022/06/24 02:33:52;;;;;;;;;;;;;;;-143.90;100.00;54932.53;3045388;19;19919;-61
2022/06/24 02:34:53;;;;;;;;;;;;;;;-143.90;100.00;54952.38;3046895;19;19921;-65
2022/06/24 02:35:54;;;;;;;;;;;;;;;-143.90;100.00;54978.19;3045675;19;20282;-62
2022/06/24 02:36:55;;;;;;;;;;;;;;;-143.90;100.00;54950.38;3047245;19;19914;-63
2022/06/24 02:37:56;;;;;;;;;;;;;;;-143.90;100.00;54960.31;3044448;19;19922;-63
2022/06/24 02:38:57;;;;;;;;;;;;;;;-143.90;100.00;54960.31;3048659;19;19919;-62
2022/06/24 02:40:45;;;;;;;;;;;;;;;-143.90;100.00;54960.31;3044935;19;19915;-62
2022/06/24 02:41:18;;;;;;;;;;;;;;;-143.90;100.00;54968.25;3044043;19;19926;-63
2022/06/24 02:42:19;;;;;;;;;;;;;;;-143.90;100.00;54976.19;3047648;19;19930;-62
2022/06/24 02:43:20;;;;;;;;;;;;;;;-143.90;100.00;54964.28;3046137;19;20380;-62
2022/06/24 02:44:20;;;;;;;;;;;;;;;-143.90;100.00;54938.47;3044358;19;19966;-63
2022/06/24 02:45:21;;;;;;;;;;;;;;;-143.90;100.00;54940.47;3048525;19;20622;-63
2022/06/24 02:46:22;;;;;;;;;;;;;;;-143.90;100.00;54980.19;3044777;19;19923;-62
2022/06/24 02:47:23;;;;;;;;;;;;;;;-143.90;100.00;54964.28;3048404;19;19922;-62
2022/06/24 02:48:24;;;;;;;;;;;;;;;-143.90;100.00;54952.38;3045864;19;20355;-62
2022/06/24 02:49:25;;;;;;;;;;;;;;;-143.90;100.00;54964.28;3045913;19;19953;-64
2022/06/24 02:50:26;;;;;;;;;;;;;;;-143.90;100.00;54976.19;3048060;19;19937;-63
2022/06/24 02:51:26;;;;;;;;;;;;;;;-143.90;100.00;54964.28;3042384;19;20121;-62
2022/06/24 02:52:28;;;;;;;;;;;;;;;-143.90;100.00;54952.38;3045829;19;19926;-62
2022/06/24 02:53:29;;;;;;;;;;;;;;;-143.90;100.00;54936.50;3048145;19;19919;-61
2022/06/24 02:54:30;;;;;;;;;;;;;;;-143.90;100.00;54966.28;3044338;19;19942;-63
2022/06/24 02:55:31;;;;;;;;;;;;;;;-143.90;100.00;55004.00;3048228;19;19929;-62
2022/06/24 02:56:31;;;;;;;;;;;;;;;-143.90;100.00;54956.34;3042064;19;19919;-62
2022/06/24 02:57:32;;;;;;;;;;;;;;;-143.90;100.00;54964.28;3044740;19;20056;-60
2022/06/24 02:58:33;;;;;;;;;;;;;;;-143.90;100.00;54936.50;3048313;19;19923;-62
2022/06/24 02:59:34;;;;;;;;;;;;;;;-143.90;100.00;54936.50;3046341;19;19978;-63
2022/06/24 03:00:35;;;;;;;;;;;;;;;-143.90;100.00;54982.16;3047501;19;20351;-62
2022/06/24 03:01:36;;;;;;;;;;;;;;;-143.90;100.00;54960.31;3043837;19;19950;-62
2022/06/24 03:02:38;;;;;;;;;;;;;;;-143.90;100.00;54972.22;3046927;19;19926;-63
2022/06/24 03:03:39;;;;;;;;;;;;;;;-143.90;100.00;54968.25;3046416;19;20342;-63
2022/06/24 03:04:39;;;;;;;;;;;;;;;-143.90;100.00;54990.09;3043114;19;19919;-63
2022/06/24 03:05:40;;;;;;;;;;;;;;;-143.90;100.00;54972.22;3046336;19;20339;-62
2022/06/24 03:06:41;;;;;;;;;;;;;;;-143.90;100.00;54936.50;3048002;19;19942;-63
2022/06/24 03:07:43;;;;;;;;;;;;;;;-143.90;100.00;54944.44;3047397;19;19930;-63
2022/06/24 03:08:44;;;;;;;;;;;;;;;-143.90;100.00;54968.25;3045007;19;19919;-63
2022/06/24 03:09:45;;;;;;;;;;;;;;;-143.90;100.00;54978.19;3045714;19;19915;-63
2022/06/24 03:10:46;;;;;;;;;;;;;;;-143.90;100.00;54934.50;3045852;19;19938;-63
2022/06/24 03:11:46;;;;;;;;;;;;;;;-143.90;100.00;54972.22;3045932;19;20454;-63
2022/06/24 03:12:47;;;;;;;;;;;;;;;-143.90;100.00;55000.03;3045237;19;19923;-63
2022/06/24 03:13:48;;;;;;;;;;;;;;;-143.90;100.00;55009.97;3047938;19;20684;-64
2022/06/24 03:14:49;;;;;;;;;;;;;;;-143.90;100.00;54980.19;3044589;19;19922;-63
2022/06/24 03:15:50;;;;;;;;;;;;;;;-143.90;100.00;54952.38;3048335;19;19930;-63
2022/06/24 03:16:51;;;;;;;;;;;;;;;-143.90;100.00;55015.91;3046115;19;20546;-63
2022/06/24 03:17:51;;;;;;;;;;;;;;;-143.90;100.00;54992.09;3047114;19;19926;-62
2022/06/24 03:18:52;;;;;;;;;;;;;;;-143.90;100.00;54980.19;3046851;19;20243;-63
2022/06/24 03:19:53;;;;;;;;;;;;;;;-143.90;100.00;54970.25;3046559;19;19983;-62
2022/06/24 03:20:54;;;;;;;;;;;;;;;-143.90;100.00;54962.31;3048099;19;19915;-62
2022/06/24 03:21:55;;;;;;;;;;;;;;;-143.90;100.00;54944.44;3046943;19;20566;-62
2022/06/24 03:22:58;;;;;;;;;;;;;;;-143.90;100.00;54992.09;3048468;19;19927;-63
2022/06/24 03:23:59;;;;;;;;;;;;;;;-143.90;100.00;54932.53;3047046;19;20281;-62
2022/06/24 03:25:00;;;;;;;;;;;;;;;-143.90;100.00;54956.34;3044692;19;19942;-62
2022/06/24 03:26:02;;;;;;;;;;;;;;;-143.90;100.00;54954.38;3046112;19;19923;-62
2022/06/24 03:27:03;;;;;;;;;;;;;;;-143.90;100.00;54972.22;3046121;19;19939;-59
2022/06/24 03:28:04;;;;;;;;;;;;;;;-143.90;100.00;54976.19;3046931;19;19951;-63
2022/06/24 03:29:05;;;;;;;;;;;;;;;-143.90;100.00;54960.31;3045787;19;20038;-62
2022/06/24 03:30:06;;;;;;;;;;;;;;;-143.90;100.00;54962.31;3044849;19;20340;-63
2022/06/24 03:31:11;;;;;;;;;;;;;;;-143.90;100.00;54956.34;3047953;19;19930;-63
2022/06/24 03:32:12;;;;;;;;;;;;;;;-143.90;100.00;54986.13;3047719;19;20390;-62
2022/06/24 03:33:13;;;;;;;;;;;;;;;-143.90;100.00;54984.16;3046601;19;19958;-62
2022/06/24 03:34:13;;;;;;;;;;;;;;;-143.90;100.00;55006.00;3045768;19;19933;-63
2022/06/24 03:35:14;;;;;;;;;;;;;;;-143.90;100.00;54968.25;3043295;19;19947;-63
2022/06/24 03:36:15;;;;;;;;;;;;;;;-143.90;100.00;54948.41;3044369;19;19933;-63
2022/06/24 03:37:16;;;;;;;;;;;;;;;-143.90;100.00;54968.25;3042349;19;20347;-64
2022/06/24 03:38:17;;;;;;;;;;;;;;;-143.90;100.00;54960.31;3041156;19;19934;-61
2022/06/24 03:39:18;;;;;;;;;;;;;;;-143.90;100.00;54948.41;3046876;19;19921;-63
2022/06/24 03:40:18;;;;;;;;;;;;;;;-143.90;100.00;54968.25;3042837;19;20816;-63
2022/06/24 03:41:19;;;;;;;;;;;;;;;-143.90;100.00;54944.44;3045544;19;19946;-62
2022/06/24 03:42:20;;;;;;;;;;;;;;;-143.90;100.00;54992.09;3045964;19;19926;-62
2022/06/24 03:43:21;;;;;;;;;;;;;;;-143.90;100.00;54984.16;3045928;19;20382;-62
2022/06/24 03:44:22;;;;;;;;;;;;;;;-143.90;100.00;54988.13;3046394;19;19930;-62
2022/06/24 03:45:23;;;;;;;;;;;;;;;-143.90;100.00;54970.25;3046500;19;20013;-63
2022/06/24 03:46:23;;;;;;;;;;;;;;;-143.90;100.00;54996.06;3045522;19;20561;-63
2022/06/24 03:47:24;;;;;;;;;;;;;;;-143.90;100.00;54964.28;3047356;19;19919;-63
2022/06/24 03:48:25;;;;;;;;;;;;;;;-143.90;100.00;54964.28;3043810;19;19923;-63
2022/06/24 03:49:26;;;;;;;;;;;;;;;-143.90;100.00;54964.28;3045511;19;20358;-64
2022/06/24 03:50:27;;;;;;;;;;;;;;;-143.90;100.00;55004.00;3043895;19;19919;-63
2022/06/24 03:51:28;;;;;;;;;;;;;;;-143.90;100.00;54984.16;3045414;19;20066;-63
2022/06/24 03:52:28;;;;;;;;;;;;;;;-143.90;100.00;54984.16;3047548;19;19921;-64
2022/06/24 03:53:32;;;;;;;;;;;;;;;-143.90;100.00;54960.31;3044878;19;20014;-63
2022/06/24 03:54:33;;;;;;;;;;;;;;;-143.90;100.00;54980.19;3047296;19;19919;-64
2022/06/24 03:55:34;;;;;;;;;;;;;;;-143.90;100.00;54968.25;3043303;19;20489;-62
2022/06/24 03:56:35;;;;;;;;;;;;;;;-143.90;100.00;55015.91;3042795;19;19926;-64
2022/06/24 03:57:36;;;;;;;;;;;;;;;-143.90;100.00;54976.19;3046846;19;19922;-64
2022/06/24 03:58:37;;;;;;;;;;;;;;;-143.90;100.00;54986.13;3045880;19;19915;-64
2022/06/24 03:59:38;;;;;;;;;;;;;;;-143.90;100.00;54950.38;3045517;19;19925;-63
2022/06/24 04:00:38;;;;;;;;;;;;;;;-143.90;100.00;54948.41;3047128;19;20320;-60
2022/06/24 04:01:39;;;;;;;;;;;;;;;-143.90;100.00;54956.34;3046086;19;19918;-62
2022/06/24 04:02:40;;;;;;;;;;;;;;;-143.90;100.00;54948.41;3045396;19;19918;-63
2022/06/24 04:03:41;;;;;;;;;;;;;;;-143.90;100.00;54996.06;3046504;19;20821;-64
2022/06/24 04:04:42;;;;;;;;;;;;;;;-143.90;100.00;54976.19;3043200;19;20003;-62
2022/06/24 04:05:42;;;;;;;;;;;;;;;-143.90;100.00;54992.09;3047104;19;19973;-63
2022/06/24 04:06:43;;;;;;;;;;;;;;;-143.90;100.00;55007.97;3042604;19;19941;-62
2022/06/24 04:07:44;;;;;;;;;;;;;;;-143.90;100.00;54984.16;3046311;19;19927;-62
2022/06/24 04:08:45;;;;;;;;;;;;;;;-143.90;100.00;54952.38;3046065;19;20383;-65
2022/06/24 04:09:46;;;;;;;;;;;;;;;-143.90;100.00;55019.88;3042535;19;19976;-63
2022/06/24 04:10:47;;;;;;;;;;;;;;;-143.90;100.00;54992.09;3043547;19;20007;-63
2022/06/24 04:11:48;;;;;;;;;;;;;;;-143.90;100.00;54976.19;3044676;19;19918;-63
2022/06/24 04:12:48;;;;;;;;;;;;;;;-143.90;100.00;54964.28;3038534;19;19914;-62
2022/06/24 04:13:49;;;;;;;;;;;;;;;-143.90;100.00;54978.19;3046224;19;19926;-63
2022/06/24 04:16:10;;;;;;;;;;;;;;;-143.90;100.00;54992.09;3043731;19;19922;-62
2022/06/24 04:17:10;;;;;;;;;;;;;;;-143.90;100.00;54952.38;3044935;19;19918;-62
2022/06/24 04:18:11;;;;;;;;;;;;;;;-143.90;100.00;55011.94;3044435;19;20748;-61
2022/06/24 04:19:12;;;;;;;;;;;;;;;-143.90;100.00;54964.28;3041305;19;19911;-62
2022/06/24 04:20:20;;;;;;;;;;;;;;;-143.90;100.00;54932.53;3045801;19;19938;-61
2022/06/24 04:21:24;;;;;;;;;;;;;;;-143.90;100.00;54964.28;3044915;19;19958;-63
2022/06/24 04:22:24;;;;;;;;;;;;;;;-143.90;100.00;54972.22;3044305;19;20289;-63
2022/06/24 04:23:25;;;;;;;;;;;;;;;-143.90;100.00;54988.13;3046050;19;19919;-62
2022/06/24 04:24:26;;;;;;;;;;;;;;;-143.90;100.00;54958.34;3043715;19;19919;-63
2022/06/24 04:25:27;;;;;;;;;;;;;;;-143.90;100.00;54980.19;3045216;19;20833;-63
2022/06/24 04:26:28;;;;;;;;;;;;;;;-143.90;100.00;54948.41;3044972;19;19931;-64
2022/06/24 04:27:29;;;;;;;;;;;;;;;-143.90;100.00;55004.00;3041174;19;19992;-63
2022/06/24 04:28:30;;;;;;;;;;;;;;;-143.90;100.00;54954.38;3046731;19;20484;-63
2022/06/24 04:29:31;;;;;;;;;;;;;;;-143.90;100.00;54980.19;3044729;19;19942;-63
2022/06/24 04:30:32;;;;;;;;;;;;;;;-143.90;100.00;54984.16;3043915;19;20364;-64
2022/06/24 04:31:33;;;;;;;;;;;;;;;-143.90;100.00;54980.19;3047026;19;20448;-61
2022/06/24 04:32:34;;;;;;;;;;;;;;;-143.90;100.00;54980.19;3045728;19;19951;-63
2022/06/24 04:33:34;;;;;;;;;;;;;;;-143.90;100.00;54964.28;3044792;19;19922;-63
2022/06/24 04:34:38;;;;;;;;;;;;;;;-143.90;100.00;55000.03;3046174;19;20235;-63
2022/06/24 04:35:39;;;;;;;;;;;;;;;-143.90;100.00;54980.19;3044730;19;21400;-63
2022/06/24 04:36:40;;;;;;;;;;;;;;;-143.90;100.00;54992.09;3045117;19;20682;-63
2022/06/24 04:37:41;;;;;;;;;;;;;;;-143.90;100.00;54962.31;3044545;19;19919;-63
2022/06/24 04:38:42;;;;;;;;;;;;;;;-143.90;100.00;54980.19;3043575;19;19964;-63
2022/06/24 04:39:44;;;;;;;;;;;;;;;-143.90;100.00;54972.22;3046737;19;19926;-62
2022/06/24 04:40:45;;;;;;;;;;;;;;;-143.90;100.00;55017.91;3044029;19;19927;-62
2022/06/24 04:41:46;;;;;;;;;;;;;;;-143.90;100.00;54992.09;3044720;19;19919;-63
2022/06/24 04:42:47;;;;;;;;;;;;;;;-143.90;100.00;54984.16;3048003;19;19930;-63
2022/06/24 04:43:48;;;;;;;;;;;;;;;-143.90;100.00;54956.34;3043736;19;20352;-63
2022/06/24 04:44:48;;;;;;;;;;;;;;;-143.90;100.00;55011.94;3047340;19;19922;-64
2022/06/24 04:45:49;;;;;;;;;;;;;;;-143.90;100.00;54964.28;3045269;19;19926;-64
2022/06/24 04:46:50;;;;;;;;;;;;;;;-143.90;100.00;55021.88;3045935;19;19930;-64
2022/06/24 04:47:51;;;;;;;;;;;;;;;-143.90;100.00;55013.94;3049742;19;19925;-61
2022/06/24 04:48:52;;;;;;;;;;;;;;;-143.90;100.00;55004.00;3047485;19;19950;-64
2022/06/24 04:49:53;;;;;;;;;;;;;;;-143.90;100.00;54984.16;3048292;19;19915;-63
2022/06/24 04:50:53;;;;;;;;;;;;;;;-143.90;100.00;55002.00;3050414;19;19923;-63
2022/06/24 04:51:54;;;;;;;;;;;;;;;-143.90;100.00;54984.16;3048379;19;19927;-62
2022/06/24 04:52:55;;;;;;;;;;;;;;;-143.90;100.00;55004.00;3047564;19;19918;-62
2022/06/24 04:53:56;;;;;;;;;;;;;;;-143.90;100.00;54996.06;3049133;19;20725;-62
2022/06/24 04:54:57;;;;;;;;;;;;;;;-143.90;100.00;54996.06;3046691;19;19964;-63
2022/06/24 04:55:58;;;;;;;;;;;;;;;-143.90;100.00;54976.19;3049154;19;19930;-63
2022/06/24 04:56:59;;;;;;;;;;;;;;;-143.90;100.00;54996.06;3046147;19;19914;-61
2022/06/24 04:58:00;;;;;;;;;;;;;;;-143.90;100.00;55013.94;3046858;19;19937;-62
2022/06/24 04:59:00;;;;;;;;;;;;;;;-143.90;100.00;54984.16;3047708;19;19938;-62
2022/06/24 05:00:02;;;;;;;;;;;;;;;-143.90;100.00;54992.09;3044282;19;19955;-62
2022/06/24 05:01:03;;;;;;;;;;;;;;;-143.90;100.00;54992.09;3049643;19;19938;-62
2022/06/24 05:02:04;;;;;;;;;;;;;;;-143.90;100.00;54964.28;3048492;19;19919;-62
2022/06/24 05:03:05;;;;;;;;;;;;;;;-143.90;100.00;55011.94;3048494;19;19972;-61
2022/06/24 05:04:06;;;;;;;;;;;;;;;-143.90;100.00;55011.94;3047804;19;19925;-63
2022/06/24 05:05:07;;;;;;;;;;;;;;;-143.90;100.00;54988.13;3049411;19;19978;-62
2022/06/24 05:06:08;;;;;;;;;;;;;;;-143.90;100.00;54992.09;3047542;19;20612;-62
2022/06/24 05:07:09;;;;;;;;;;;;;;;-143.90;100.00;54962.31;3047719;19;19922;-62
2022/06/24 05:08:10;;;;;;;;;;;;;;;-143.90;100.00;54980.19;3046414;19;19933;-61
2022/06/24 05:09:10;;;;;;;;;;;;;;;-143.90;100.00;55015.91;3047230;19;19952;-62
2022/06/24 05:10:11;;;;;;;;;;;;;;;-143.90;100.00;55011.94;3048461;19;21370;-60
2022/06/24 05:11:13;;;;;;;;;;;;;;;-143.90;100.00;55035.78;3048134;19;20032;-62
2022/06/24 05:12:13;;;;;;;;;;;;;;;-143.90;100.00;54980.19;3048620;19;19923;-62